Challenge Peak — 9V9589 — position and weather

sailwx.info

Track history (hours):
 
Tides and Currents Weather Stations Pressure Air Temp Water Temp Dewpoint Dewpoint Depression Visibility Wind Speed Wind Dir Waves Ship Positions

Challenge Peak

Last reported at 2015-Aug-29 11:18 UTC. Time now 2015-Aug-31 08:53 UTC.
Position N 33°07' E 028°27'.

Length 182 m; draft 12.1 m.

Type: Tanker. MMSI: 566433000.

Date/timePositionNaut miles runAvg speedWind from/ knotsBaromVisibWave heightAir tempDewpointWater temp
2015-Aug-29 11:18N 33°07' E 028°27'1312.5
2015-Aug-29 10:17N 33°04' E 028°41'2212.8
2015-Aug-29 08:33N 32°56' E 029°06'1513.2
2015-Aug-29 07:25N 32°52' E 029°23'1213.5
2015-Aug-29 06:33N 32°48' E 029°36'1313.5
2015-Aug-29 05:33N 32°44' E 029°51'1413.4
2015-Aug-29 04:31N 32°39' E 030°07'6613.3
2015-Aug-28 23:33N 32°13' E 031°19'4013.3
2015-Aug-28 20:33N 31°48' E 031°55'1612.8
2015-Aug-28 19:17N 31°37' E 032°09'912.6
2015-Aug-28 18:33N 31°31' E 032°17'9 9.2
2015-Aug-28 17:33N 31°24' E 032°24'1110.7
2015-Aug-28 16:33N 31°13' E 032°21'11 8.9
2015-Aug-28 15:21N 31°03' E 032°19'  
Track history (hours):
 
Tides and Currents Weather Stations Pressure Air Temp Water Temp Dewpoint Dewpoint Depression Visibility Wind Speed Wind Dir Waves Ship Positions

Challenge Peak

Last reported at 2015-Aug-29 11:18 UTC. Time now 2015-Aug-31 08:53 UTC.
Position N 33°07' E 028°27'.

Length 182 m; draft 12.1 m.

Type: Tanker. MMSI: 566433000.

Date/timePositionNaut miles runAvg speedWind from/ knotsBaromVisibWave heightAir tempDewpointWater temp
2015-Aug-29 11:18N 33°07' E 028°27'1312.5
2015-Aug-29 10:17N 33°04' E 028°41'2212.8
2015-Aug-29 08:33N 32°56' E 029°06'1513.2
2015-Aug-29 07:25N 32°52' E 029°23'1213.5
2015-Aug-29 06:33N 32°48' E 029°36'1313.5
2015-Aug-29 05:33N 32°44' E 029°51'1413.4
2015-Aug-29 04:31N 32°39' E 030°07'6613.3
2015-Aug-28 23:33N 32°13' E 031°19'4013.3
2015-Aug-28 20:33N 31°48' E 031°55'1612.8
2015-Aug-28 19:17N 31°37' E 032°09'912.6
2015-Aug-28 18:33N 31°31' E 032°17'9 9.2
2015-Aug-28 17:33N 31°24' E 032°24'1110.7
2015-Aug-28 16:33N 31°13' E 032°21'11 8.9
2015-Aug-28 15:21N 31°03' E 032°19'  

Dump ship's entire track history